Time,TemperatureF,DewpointF,PressureIn,WindDirection,WindDirectionDegrees,WindSpeedMPH,WindSpeedGustMPH,Humidity,HourlyPrecipIn,Conditions,Clouds,dailyrainin,SoftwareType,DateUTC
2013-09-08 00:13:00,72.0,67.0,-100.00,North,-999,-999.0,-999.0,83,0.00,,,0.00,,2013-09-08 05:13:00,
2013-09-08 00:23:00,72.0,67.0,-100.00,North,-999,-999.0,-999.0,83,0.00,,,0.00,,2013-09-08 05:23:00,
2013-09-08 00:34:00,72.0,67.0,-100.00,North,-999,-999.0,-999.0,83,0.00,,,0.00,,2013-09-08 05:34:00,
2013-09-08 01:22:00,72.0,68.0,-100.00,North,-999,-999.0,-999.0,88,-99.99,,,0.00,,2013-09-08 06:22:00,
2013-09-08 01:53:00,72.0,69.0,-100.00,North,-999,-999.0,-999.0,90,0.00,,,0.00,,2013-09-08 06:53:00,
2013-09-08 02:23:00,72.0,70.0,-100.00,North,-999,-999.0,-999.0,93,0.00,,,0.00,,2013-09-08 07:23:00,
2013-09-08 02:52:00,71.0,70.0,-100.00,North,-999,-999.0,-999.0,95,0.00,,,0.00,,2013-09-08 07:52:00,
2013-09-08 03:22:00,71.0,70.0,-100.00,North,-999,-999.0,-999.0,97,0.00,,,0.00,,2013-09-08 08:22:00,
2013-09-08 03:52:00,71.0,70.0,-100.00,North,-999,-999.0,-999.0,98,0.00,,,0.00,,2013-09-08 08:52:00,
2013-09-08 04:22:00,70.0,70.0,-100.00,North,-999,-999.0,-999.0,100,0.00,,,0.00,,2013-09-08 09:22:00,
2013-09-08 04:43:00,70.0,70.0,-100.00,North,-999,-999.0,-999.0,100,0.00,,,0.00,,2013-09-08 09:43:00,
2013-09-08 04:53:00,70.0,70.0,-100.00,North,-999,-999.0,-999.0,100,0.00,,,0.00,,2013-09-08 09:53:00,
2013-09-08 05:23:00,69.0,69.0,-100.00,North,-999,-999.0,-999.0,100,0.00,,,0.00,,2013-09-08 10:23:00,
2013-09-08 05:53:00,69.0,69.0,-100.00,North,-999,-999.0,-999.0,100,0.00,,,0.00,,2013-09-08 10:53:00,
2013-09-08 06:21:00,68.0,68.0,-100.00,North,-999,-999.0,-999.0,100,0.00,,,0.00,,2013-09-08 11:21:00,
2013-09-08 06:52:00,71.0,71.0,-100.00,North,-999,-999.0,-999.0,100,0.00,,,0.00,,2013-09-08 11:52:00,
2013-09-08 07:22:00,71.0,71.0,-100.00,North,-999,-999.0,-999.0,100,0.00,,,0.00,,2013-09-08 12:22:00,
2013-09-08 07:52:00,70.0,70.0,-100.00,North,-999,-999.0,-999.0,100,0.00,,,0.00,,2013-09-08 12:52:00,
2013-09-08 08:02:00,70.0,70.0,-100.00,North,-999,-999.0,-999.0,100,0.00,,,0.00,,2013-09-08 13:02:00,
2013-09-08 08:22:00,70.0,70.0,-100.00,North,-999,-999.0,-999.0,100,0.00,,,-99.99,,2013-09-08 13:22:00,
2013-09-08 08:52:00,72.0,72.0,-100.00,North,-999,-999.0,-999.0,100,0.00,,,0.00,,2013-09-08 13:52:00,
2013-09-08 09:22:00,73.0,73.0,-100.00,North,-999,-999.0,-999.0,99,0.00,,,0.00,,2013-09-08 14:22:00,
2013-09-08 09:52:00,74.0,72.0,-100.00,North,-999,-999.0,-999.0,92,0.00,,,0.00,,2013-09-08 14:52:00,
2013-09-08 10:23:00,76.0,71.0,-100.00,North,-999,-999.0,-999.0,84,0.00,,,0.00,,2013-09-08 15:23:00,
2013-09-08 10:34:00,76.0,71.0,-100.00,North,-999,-999.0,-999.0,84,0.00,,,0.00,,2013-09-08 15:34:00,
2013-09-08 10:54:00,78.0,70.0,-100.00,North,-999,-999.0,-999.0,76,0.00,,,0.00,,2013-09-08 15:54:00,
2013-09-08 11:23:00,81.0,71.0,-100.00,North,-999,-999.0,-999.0,70,0.00,,,0.00,,2013-09-08 16:23:00,
2013-09-08 11:53:00,82.0,69.0,-100.00,North,-999,-999.0,-999.0,65,0.00,,,-99.99,,2013-09-08 16:53:00,
2013-09-08 12:23:00,83.0,70.0,-100.00,North,-999,-999.0,-999.0,64,0.00,,,0.00,,2013-09-08 17:23:00,
2013-09-08 12:53:00,83.0,68.0,-100.00,North,-999,-999.0,-999.0,60,0.00,,,0.00,,2013-09-08 17:53:00,
2013-09-08 13:22:00,84.0,67.0,-100.00,North,-999,-999.0,-999.0,56,0.00,,,0.00,,2013-09-08 18:22:00,
2013-09-08 13:42:00,85.0,68.0,-100.00,North,-999,-999.0,-999.0,56,0.00,,,0.00,,2013-09-08 18:42:00,
2013-09-08 13:52:00,85.0,68.0,-100.00,North,-999,-999.0,-999.0,56,0.00,,,0.00,,2013-09-08 18:52:00,
2013-09-08 14:22:00,85.0,67.0,-100.00,North,-999,-999.0,-999.0,55,0.00,,,0.00,,2013-09-08 19:22:00,
2013-09-08 14:52:00,87.0,66.0,-100.00,North,-999,-999.0,-999.0,50,0.00,,,0.00,,2013-09-08 19:52:00,
2013-09-08 15:22:00,88.0,65.0,-100.00,North,-999,-999.0,-999.0,46,0.00,,,0.00,,2013-09-08 20:22:00,
2013-09-08 15:53:00,89.0,66.0,-100.00,North,-999,-999.0,-999.0,47,0.00,,,0.00,,2013-09-08 20:53:00,
2013-09-08 16:22:00,87.0,64.0,-100.00,North,-999,-999.0,-999.0,47,0.00,,,0.00,,2013-09-08 21:22:00,
2013-09-08 16:54:00,87.0,65.0,-100.00,North,-999,-999.0,-999.0,48,0.00,,,0.00,,2013-09-08 21:54:00,
2013-09-08 17:13:00,89.0,63.0,-100.00,North,-999,-999.0,-999.0,42,0.00,,,0.00,,2013-09-08 22:13:00,
2013-09-08 17:24:00,89.0,63.0,-100.00,North,-999,-999.0,-999.0,42,0.00,,,0.00,,2013-09-08 22:24:00,
2013-09-08 17:53:00,84.0,68.0,-100.00,North,-999,-999.0,-999.0,59,0.00,,,0.00,,2013-09-08 22:53:00,
2013-09-08 18:12:00,85.0,70.0,-100.00,North,-999,-999.0,-999.0,59,0.00,,,-99.99,,2013-09-08 23:12:00,
2013-09-08 18:22:00,85.0,70.0,-100.00,North,-999,-999.0,-999.0,59,0.00,,,-99.99,,2013-09-08 23:22:00,
2013-09-08 18:52:00,86.0,65.0,-100.00,North,-999,-999.0,-999.0,51,0.00,,,0.00,,2013-09-08 23:52:00,
2013-09-08 19:02:00,86.0,65.0,-100.00,North,-999,-999.0,-999.0,51,0.00,,,0.00,,2013-09-09 00:02:00,
2013-09-08 19:22:00,84.0,65.0,-100.00,North,-999,-999.0,-999.0,53,-99.99,,,-99.99,,2013-09-09 00:22:00,
2013-09-08 19:52:00,83.0,66.0,-100.00,North,-999,-999.0,-999.0,57,0.00,,,0.00,,2013-09-09 00:52:00,
2013-09-08 20:21:00,81.0,67.0,-100.00,North,-999,-999.0,-999.0,62,0.00,,,0.00,,2013-09-09 01:21:00,
2013-09-08 20:52:00,78.0,68.0,-100.00,North,-999,-999.0,-999.0,71,0.00,,,0.00,,2013-09-09 01:52:00,
2013-09-08 21:22:00,77.0,68.0,-100.00,North,-999,-999.0,-999.0,75,0.00,,,0.00,,2013-09-09 02:22:00,
2013-09-08 21:52:00,77.0,68.0,-100.00,North,-999,-999.0,-999.0,74,0.00,,,0.00,,2013-09-09 02:52:00,
2013-09-08 22:12:00,77.0,68.0,-100.00,North,-999,-999.0,-999.0,73,0.00,,,0.00,,2013-09-09 03:12:00,
2013-09-08 22:22:00,77.0,68.0,-100.00,North,-999,-999.0,-999.0,73,0.00,,,0.00,,2013-09-09 03:22:00,
2013-09-08 22:55:00,76.0,69.0,-100.00,North,-999,-999.0,-999.0,78,0.00,,,0.00,,2013-09-09 03:55:00,
2013-09-08 23:24:00,76.0,68.0,-100.00,North,-999,-999.0,-999.0,77,-99.99,,,0.00,,2013-09-09 04:24:00,
2013-09-08 23:33:00,76.0,68.0,-100.00,North,-999,-999.0,-999.0,77,-99.99,,,0.00,,2013-09-09 04:33:00,
2013-09-08 23:43:00,76.0,68.0,-100.00,North,-999,-999.0,-999.0,77,-99.99,,,0.00,,2013-09-09 04:43:00,
2013-09-08 23:54:00,76.0,68.0,-100.00,North,-999,-999.0,-999.0,77,-99.99,,,0.00,,2013-09-09 04:54:00,